Prerov, Czech Republic
Current Conditions -  °F | °C
As of 5:00 PM on Saturday 20 Dec 2014 (Local Time) from LKMT Reporting Station
Broken Clouds Broken Clouds  
Wind Chill: 35°   Ceiling: 4200
Heat Index: 43°   Visibility: 6mi
Dew Point: 30°   Wind: 16mph
Humidity: 61%   Direction: 200°SSW
Pressure: 29.97"   Gusts: NA
Location:  49.46°N, 17.45°E
Report Text: LKMT 201500Z 20014KT 9999 BKN042 06/M01 Q1015 NOSIG
Loading
Personal Weather Stations






























Interactive Weather Map New forecast layout! Learn more

10-Day Weather Forecast

Advertisements
Track Severe Weather on mobile